sensor_id;sensor_type;location;lat;lon;timestamp;pressure;altitude;pressure_sealevel;temperature;humidity
69171;BME280;56279;47.902;12.308;2022-09-09T00:03:12;95220.75;;;16.10;80.30
69171;BME280;56279;47.902;12.308;2022-09-09T00:07:55;95218.09;;;16.10;80.44
69171;BME280;56279;47.902;12.308;2022-09-09T00:10:17;95216.81;;;16.08;80.62
69171;BME280;56279;47.902;12.308;2022-09-09T00:12:38;95209.00;;;16.03;80.87
69171;BME280;56279;47.902;12.308;2022-09-09T00:16:56;95217.91;;;15.98;81.04
69171;BME280;56279;47.902;12.308;2022-09-09T00:19:33;95210.56;;;15.95;80.81
69171;BME280;56279;47.902;12.308;2022-09-09T00:21:41;95211.63;;;15.94;80.89
69171;BME280;56279;47.902;12.308;2022-09-09T00:23:55;95201.63;;;15.91;80.85
69171;BME280;56279;47.902;12.308;2022-09-09T00:26:05;95207.91;;;15.86;80.89
69171;BME280;56279;47.902;12.308;2022-09-09T00:28:17;95205.38;;;15.81;81.24
69171;BME280;56279;47.902;12.308;2022-09-09T00:30:20;95210.22;;;15.79;81.34
69171;BME280;56279;47.902;12.308;2022-09-09T00:32:28;95206.31;;;15.77;81.65
69171;BME280;56279;47.902;12.308;2022-09-09T00:34:30;95205.53;;;15.76;81.61
69171;BME280;56279;47.902;12.308;2022-09-09T00:36:33;95209.75;;;15.77;81.93
69171;BME280;56279;47.902;12.308;2022-09-09T00:38:42;95203.66;;;15.77;81.99
69171;BME280;56279;47.902;12.308;2022-09-09T00:41:35;95206.31;;;15.77;81.97
69171;BME280;56279;47.902;12.308;2022-09-09T00:43:36;95201.00;;;15.77;82.10
69171;BME280;56279;47.902;12.308;2022-09-09T00:47:53;95214.31;;;15.77;82.02
69171;BME280;56279;47.902;12.308;2022-09-09T00:50:08;95218.50;;;15.78;81.79
69171;BME280;56279;47.902;12.308;2022-09-09T00:52:21;95216.16;;;15.76;82.12
69171;BME280;56279;47.902;12.308;2022-09-09T00:59:12;95223.50;;;15.71;82.73
69171;BME280;56279;47.902;12.308;2022-09-09T01:01:17;95221.31;;;15.73;83.07
69171;BME280;56279;47.902;12.308;2022-09-09T01:03:24;95219.91;;;15.75;83.33
69171;BME280;56279;47.902;12.308;2022-09-09T01:05:36;95223.84;;;15.78;83.36
69171;BME280;56279;47.902;12.308;2022-09-09T01:07:44;95221.63;;;15.80;83.41
69171;BME280;56279;47.902;12.308;2022-09-09T01:09:55;95219.16;;;15.83;83.55
69171;BME280;56279;47.902;12.308;2022-09-09T01:16:41;95222.59;;;15.84;83.79
69171;BME280;56279;47.902;12.308;2022-09-09T01:18:47;95211.97;;;15.84;83.66
69171;BME280;56279;47.902;12.308;2022-09-09T01:23:35;95222.47;;;15.89;83.32
69171;BME280;56279;47.902;12.308;2022-09-09T01:26:12;95219.78;;;15.89;83.09
69171;BME280;56279;47.902;12.308;2022-09-09T01:28:21;95222.47;;;15.89;83.27
69171;BME280;56279;47.902;12.308;2022-09-09T01:30:26;95226.38;;;15.92;83.78
69171;BME280;56279;47.902;12.308;2022-09-09T01:32:42;95221.34;;;15.90;83.52
69171;BME280;56279;47.902;12.308;2022-09-09T01:34:45;95224.00;;;15.90;83.85
69171;BME280;56279;47.902;12.308;2022-09-09T01:38:54;95218.22;;;15.88;84.09
69171;BME280;56279;47.902;12.308;2022-09-09T01:40:55;95223.53;;;15.88;84.13
69171;BME280;56279;47.902;12.308;2022-09-09T01:43:03;95227.94;;;15.84;84.29
69171;BME280;56279;47.902;12.308;2022-09-09T01:45:06;95232.47;;;15.83;84.65
69171;BME280;56279;47.902;12.308;2022-09-09T01:47:08;95241.53;;;15.82;84.58
69171;BME280;56279;47.902;12.308;2022-09-09T01:49:16;95243.25;;;15.78;84.80
69171;BME280;56279;47.902;12.308;2022-09-09T01:51:18;95243.25;;;15.78;84.76
69171;BME280;56279;47.902;12.308;2022-09-09T01:53:21;95246.84;;;15.82;84.75
69171;BME280;56279;47.902;12.308;2022-09-09T01:55:31;95250.63;;;15.81;84.76
69171;BME280;56279;47.902;12.308;2022-09-09T01:57:55;95254.38;;;15.80;84.64
69171;BME280;56279;47.902;12.308;2022-09-09T02:00:05;95256.72;;;15.82;84.77
69171;BME280;56279;47.902;12.308;2022-09-09T02:04:43;95265.97;;;15.84;84.68
69171;BME280;56279;47.902;12.308;2022-09-09T02:06:53;95275.03;;;15.83;84.56
69171;BME280;56279;47.902;12.308;2022-09-09T02:09:04;95272.38;;;15.83;84.87
69171;BME280;56279;47.902;12.308;2022-09-09T02:11:17;95268.94;;;15.83;84.98
69171;BME280;56279;47.902;12.308;2022-09-09T02:13:29;95261.88;;;15.78;85.22
69171;BME280;56279;47.902;12.308;2022-09-09T02:17:46;95259.69;;;15.72;85.49
69171;BME280;56279;47.902;12.308;2022-09-09T02:19:56;95262.81;;;15.65;85.54
69171;BME280;56279;47.902;12.308;2022-09-09T02:22:26;95256.03;;;15.59;85.57
69171;BME280;56279;47.902;12.308;2022-09-09T02:24:31;95259.63;;;15.55;85.78
69171;BME280;56279;47.902;12.308;2022-09-09T02:26:49;95256.03;;;15.51;86.03
69171;BME280;56279;47.902;12.308;2022-09-09T02:28:57;95254.75;;;15.48;86.65
69171;BME280;56279;47.902;12.308;2022-09-09T02:31:04;95249.56;;;15.43;86.71
69171;BME280;56279;47.902;12.308;2022-09-09T02:33:15;95243.28;;;15.39;87.03
69171;BME280;56279;47.902;12.308;2022-09-09T02:35:46;95238.09;;;15.34;86.96
69171;BME280;56279;47.902;12.308;2022-09-09T02:38:07;95240.63;;;15.31;87.42
69171;BME280;56279;47.902;12.308;2022-09-09T02:40:11;95250.75;;;15.29;87.48
69171;BME280;56279;47.902;12.308;2022-09-09T02:42:20;95236.97;;;15.27;87.58
69171;BME280;56279;47.902;12.308;2022-09-09T02:44:24;95240.28;;;15.23;87.53
69171;BME280;56279;47.902;12.308;2022-09-09T02:48:44;95252.94;;;15.27;87.56
69171;BME280;56279;47.902;12.308;2022-09-09T02:53:17;95253.25;;;15.25;87.64
69171;BME280;56279;47.902;12.308;2022-09-09T02:55:40;95253.25;;;15.25;87.37
69171;BME280;56279;47.902;12.308;2022-09-09T02:57:46;95256.69;;;15.26;87.60
69171;BME280;56279;47.902;12.308;2022-09-09T02:59:51;95250.28;;;15.27;87.56
69171;BME280;56279;47.902;12.308;2022-09-09T03:01:53;95253.41;;;15.29;87.46
69171;BME280;56279;47.902;12.308;2022-09-09T03:03:55;95254.97;;;15.30;87.53
69171;BME280;56279;47.902;12.308;2022-09-09T03:05:56;95240.28;;;15.32;87.42
69171;BME280;56279;47.902;12.308;2022-09-09T03:07:58;95244.53;;;15.33;87.26
69171;BME280;56279;47.902;12.308;2022-09-09T03:09:59;95232.31;;;15.32;87.30
69171;BME280;56279;47.902;12.308;2022-09-09T03:12:02;95227.78;;;15.33;87.36
69171;BME280;56279;47.902;12.308;2022-09-09T03:14:06;95238.72;;;15.31;87.19
69171;BME280;56279;47.902;12.308;2022-09-09T03:16:11;95220.41;;;15.30;87.28
69171;BME280;56279;47.902;12.308;2022-09-09T03:18:17;95227.13;;;15.27;87.06
69171;BME280;56279;47.902;12.308;2022-09-09T03:20:28;95227.13;;;15.27;87.06
69171;BME280;56279;47.902;12.308;2022-09-09T03:22:30;95225.88;;;15.24;87.45
69171;BME280;56279;47.902;12.308;2022-09-09T03:24:33;95223.53;;;15.23;87.68
69171;BME280;56279;47.902;12.308;2022-09-09T03:26:37;95219.63;;;15.20;87.71
69171;BME280;56279;47.902;12.308;2022-09-09T03:28:42;95220.22;;;15.17;88.10
69171;BME280;56279;47.902;12.308;2022-09-09T03:30:46;95213.97;;;15.13;87.97
69171;BME280;56279;47.902;12.308;2022-09-09T03:32:47;95206.59;;;15.10;88.22
69171;BME280;56279;47.902;12.308;2022-09-09T03:34:49;95198.94;;;15.09;88.47
69171;BME280;56279;47.902;12.308;2022-09-09T03:36:50;95206.13;;;15.08;88.41
69171;BME280;56279;47.902;12.308;2022-09-09T03:38:54;95200.00;;;15.08;88.81
69171;BME280;56279;47.902;12.308;2022-09-09T03:40:57;95193.16;;;15.07;89.15
69171;BME280;56279;47.902;12.308;2022-09-09T03:42:59;95187.03;;;15.06;88.92
69171;BME280;56279;47.902;12.308;2022-09-09T03:45:01;95192.34;;;15.06;88.93
69171;BME280;56279;47.902;12.308;2022-09-09T03:47:03;95188.63;;;15.07;88.40
69171;BME280;56279;47.902;12.308;2022-09-09T03:49:04;95186.44;;;15.09;88.82
69171;BME280;56279;47.902;12.308;2022-09-09T03:51:07;95181.13;;;15.09;88.39
69171;BME280;56279;47.902;12.308;2022-09-09T03:53:09;95185.03;;;15.12;88.43
69171;BME280;56279;47.902;12.308;2022-09-09T03:55:11;95176.41;;;15.15;88.17
69171;BME280;56279;47.902;12.308;2022-09-09T03:57:12;95171.91;;;15.15;88.41
69171;BME280;56279;47.902;12.308;2022-09-09T03:59:17;95168.16;;;15.16;88.02
69171;BME280;56279;47.902;12.308;2022-09-09T04:01:18;95173.94;;;15.18;87.98
69171;BME280;56279;47.902;12.308;2022-09-09T04:03:21;95185.06;;;15.20;87.93
69171;BME280;56279;47.902;12.308;2022-09-09T04:05:25;95173.34;;;15.21;87.74
69171;BME280;56279;47.902;12.308;2022-09-09T04:07:26;95173.81;;;15.23;87.67
69171;BME280;56279;47.902;12.308;2022-09-09T04:09:30;95168.50;;;15.23;87.69
69171;BME280;56279;47.902;12.308;2022-09-09T04:11:32;95169.25;;;15.24;87.66
69171;BME280;56279;47.902;12.308;2022-09-09T04:13:35;95168.97;;;15.26;87.54
69171;BME280;56279;47.902;12.308;2022-09-09T04:15:39;95160.19;;;15.25;87.49
69171;BME280;56279;47.902;12.308;2022-09-09T04:17:40;95156.47;;;15.26;87.11
69171;BME280;56279;47.902;12.308;2022-09-09T04:19:43;95156.13;;;15.28;87.06
69171;BME280;56279;47.902;12.308;2022-09-09T04:21:45;95158.31;;;15.26;87.22
69171;BME280;56279;47.902;12.308;2022-09-09T04:23:46;95168.16;;;15.25;87.15
69171;BME280;56279;47.902;12.308;2022-09-09T04:25:53;95171.91;;;15.24;87.27
69171;BME280;56279;47.902;12.308;2022-09-09T04:27:55;95174.56;;;15.24;87.33
69171;BME280;56279;47.902;12.308;2022-09-09T04:29:57;95181.78;;;15.23;87.04
69171;BME280;56279;47.902;12.308;2022-09-09T04:32:09;95182.88;;;15.22;87.27
69171;BME280;56279;47.902;12.308;2022-09-09T04:34:14;95180.53;;;15.21;87.51
69171;BME280;56279;47.902;12.308;2022-09-09T04:36:16;95178.16;;;15.19;87.59
69171;BME280;56279;47.902;12.308;2022-09-09T04:38:20;95172.06;;;15.19;87.28
69171;BME280;56279;47.902;12.308;2022-09-09T04:40:24;95172.06;;;15.19;87.55
69171;BME280;56279;47.902;12.308;2022-09-09T04:42:26;95167.06;;;15.17;87.68
69171;BME280;56279;47.902;12.308;2022-09-09T04:44:28;95167.06;;;15.17;87.39
69171;BME280;56279;47.902;12.308;2022-09-09T04:46:31;95167.84;;;15.18;87.37
69171;BME280;56279;47.902;12.308;2022-09-09T04:48:35;95167.53;;;15.19;87.42
69171;BME280;56279;47.902;12.308;2022-09-09T04:50:38;95164.09;;;15.19;87.22
69171;BME280;56279;47.902;12.308;2022-09-09T04:52:41;95167.22;;;15.21;87.26
69171;BME280;56279;47.902;12.308;2022-09-09T04:54:43;95159.72;;;15.23;87.26
69171;BME280;56279;47.902;12.308;2022-09-09T04:56:45;95165.84;;;15.23;87.08
69171;BME280;56279;47.902;12.308;2022-09-09T04:58:47;95171.91;;;15.24;87.30
69171;BME280;56279;47.902;12.308;2022-09-09T05:00:50;95173.50;;;15.25;87.15
69171;BME280;56279;47.902;12.308;2022-09-09T05:02:52;95168.97;;;15.26;87.33
69171;BME280;56279;47.902;12.308;2022-09-09T05:04:53;95165.97;;;15.27;87.17
69171;BME280;56279;47.902;12.308;2022-09-09T05:06:55;95162.53;;;15.27;87.42
69171;BME280;56279;47.902;12.308;2022-09-09T05:08:57;95163.66;;;15.26;87.42
69171;BME280;56279;47.902;12.308;2022-09-09T05:11:25;95160.66;;;15.27;87.43
69171;BME280;56279;47.902;12.308;2022-09-09T05:13:26;95162.72;;;15.30;87.12
69171;BME280;56279;47.902;12.308;2022-09-09T05:15:29;95162.88;;;15.34;87.01
69171;BME280;56279;47.902;12.308;2022-09-09T05:17:30;95164.91;;;15.37;86.57
69171;BME280;56279;47.902;12.308;2022-09-09T05:19:32;95166.50;;;15.38;86.77
69171;BME280;56279;47.902;12.308;2022-09-09T05:21:33;95174.16;;;15.39;87.00
69171;BME280;56279;47.902;12.308;2022-09-09T05:23:35;95170.22;;;15.37;87.11
69171;BME280;56279;47.902;12.308;2022-09-09T05:25:36;95170.22;;;15.37;87.16
69171;BME280;56279;47.902;12.308;2022-09-09T05:27:38;95161.47;;;15.36;87.27
69171;BME280;56279;47.902;12.308;2022-09-09T05:29:40;95165.69;;;15.37;87.05
69171;BME280;56279;47.902;12.308;2022-09-09T05:31:45;95162.72;;;15.39;86.71
69171;BME280;56279;47.902;12.308;2022-09-09T05:33:50;95158.34;;;15.43;86.26
69171;BME280;56279;47.902;12.308;2022-09-09T05:35:56;95156.97;;;15.45;85.90
69171;BME280;56279;47.902;12.308;2022-09-09T05:37:59;95168.56;;;15.49;86.00
69171;BME280;56279;47.902;12.308;2022-09-09T05:40:01;95169.19;;;15.55;85.67
69171;BME280;56279;47.902;12.308;2022-09-09T05:42:03;95173.88;;;15.58;85.95
69171;BME280;56279;47.902;12.308;2022-09-09T05:44:07;95181.72;;;15.63;86.17
69171;BME280;56279;47.902;12.308;2022-09-09T05:46:15;95185.31;;;15.67;86.10
69171;BME280;56279;47.902;12.308;2022-09-09T05:48:16;95193.16;;;15.72;85.57
69171;BME280;56279;47.902;12.308;2022-09-09T05:50:18;95195.66;;;15.77;85.22
69171;BME280;56279;47.902;12.308;2022-09-09T05:52:19;95197.06;;;15.83;85.73
69171;BME280;56279;47.902;12.308;2022-09-09T05:54:21;95205.53;;;15.85;85.54
69171;BME280;56279;47.902;12.308;2022-09-09T05:56:27;95204.59;;;15.89;85.86
69171;BME280;56279;47.902;12.308;2022-09-09T05:58:31;95199.91;;;15.95;85.72
69171;BME280;56279;47.902;12.308;2022-09-09T06:00:33;95201.31;;;16.01;85.20
69171;BME280;56279;47.902;12.308;2022-09-09T06:02:35;95214.31;;;16.11;85.07
69171;BME280;56279;47.902;12.308;2022-09-09T06:04:38;95216.97;;;16.28;84.83
69171;BME280;56279;47.902;12.308;2022-09-09T06:06:40;95215.38;;;16.44;84.41
69171;BME280;56279;47.902;12.308;2022-09-09T06:08:55;95217.56;;;16.59;83.78
69171;BME280;56279;47.902;12.308;2022-09-09T06:11:06;95214.25;;;16.71;83.93
69171;BME280;56279;47.902;12.308;2022-09-09T06:13:08;95209.22;;;16.78;83.35
69171;BME280;56279;47.902;12.308;2022-09-09T06:15:11;95206.25;;;16.80;82.90
69171;BME280;56279;47.902;12.308;2022-09-09T06:17:12;95202.00;;;16.79;82.85
69171;BME280;56279;47.902;12.308;2022-09-09T06:19:14;95199.97;;;16.76;83.07
69171;BME280;56279;47.902;12.308;2022-09-09T06:21:21;95196.72;;;16.70;83.10
69171;BME280;56279;47.902;12.308;2022-09-09T06:23:23;95205.34;;;16.67;83.37
69171;BME280;56279;47.902;12.308;2022-09-09T06:25:25;95199.88;;;16.64;83.60
69171;BME280;56279;47.902;12.308;2022-09-09T06:27:27;95192.34;;;16.57;84.01
69171;BME280;56279;47.902;12.308;2022-09-09T06:29:29;95197.06;;;16.51;84.38
69171;BME280;56279;47.902;12.308;2022-09-09T06:31:33;95185.47;;;16.47;84.61
69171;BME280;56279;47.902;12.308;2022-09-09T06:33:41;95198.00;;;16.47;84.71
69171;BME280;56279;47.902;12.308;2022-09-09T06:35:51;95199.69;;;16.43;85.03
69171;BME280;56279;47.902;12.308;2022-09-09T06:37:55;95195.81;;;16.40;85.14
69171;BME280;56279;47.902;12.308;2022-09-09T06:39:56;95196.91;;;16.39;85.33
69171;BME280;56279;47.902;12.308;2022-09-09T06:41:58;95191.56;;;16.39;85.53
69171;BME280;56279;47.902;12.308;2022-09-09T06:44:31;95200.03;;;16.41;85.45
69171;BME280;56279;47.902;12.308;2022-09-09T06:46:34;95200.19;;;16.45;85.84
69171;BME280;56279;47.902;12.308;2022-09-09T06:48:39;95209.09;;;16.49;85.73
69171;BME280;56279;47.902;12.308;2022-09-09T06:50:42;95207.22;;;16.49;85.69
69171;BME280;56279;47.902;12.308;2022-09-09T06:52:48;95212.25;;;16.51;85.44
69171;BME280;56279;47.902;12.308;2022-09-09T06:54:50;95213.06;;;16.51;85.36
69171;BME280;56279;47.902;12.308;2022-09-09T06:56:54;95226.06;;;16.53;85.35
69171;BME280;56279;47.902;12.308;2022-09-09T06:59:02;95231.84;;;16.55;85.25
69171;BME280;56279;47.902;12.308;2022-09-09T07:01:07;95241.09;;;16.57;85.02
69171;BME280;56279;47.902;12.308;2022-09-09T07:03:10;95241.09;;;16.57;84.60
69171;BME280;56279;47.902;12.308;2022-09-09T07:05:12;95235.75;;;16.57;84.58
69171;BME280;56279;47.902;12.308;2022-09-09T07:07:18;95226.22;;;16.56;84.34
69171;BME280;56279;47.902;12.308;2022-09-09T07:09:22;95221.50;;;16.53;84.52
69171;BME280;56279;47.902;12.308;2022-09-09T07:11:29;95217.25;;;16.52;84.54
69171;BME280;56279;47.902;12.308;2022-09-09T07:13:32;95220.72;;;16.53;84.76
69171;BME280;56279;47.902;12.308;2022-09-09T07:15:37;95221.97;;;16.55;84.76
69171;BME280;56279;47.902;12.308;2022-09-09T07:17:39;95232.31;;;16.57;84.75
69171;BME280;56279;47.902;12.308;2022-09-09T07:19:40;95233.56;;;16.59;84.85
69171;BME280;56279;47.902;12.308;2022-09-09T07:21:42;95232.94;;;16.63;84.67
69171;BME280;56279;47.902;12.308;2022-09-09T07:23:47;95223.19;;;16.67;84.57
69171;BME280;56279;47.902;12.308;2022-09-09T07:25:56;95226.66;;;16.67;84.35
69171;BME280;56279;47.902;12.308;2022-09-09T07:27:59;95227.28;;;16.64;84.14
69171;BME280;56279;47.902;12.308;2022-09-09T07:30:01;95225.09;;;16.66;84.21
69171;BME280;56279;47.902;12.308;2022-09-09T07:32:04;95219.28;;;16.73;84.08
69171;BME280;56279;47.902;12.308;2022-09-09T07:34:12;95226.00;;;16.79;84.11
69171;BME280;56279;47.902;12.308;2022-09-09T07:36:26;95224.41;;;16.86;83.61
69171;BME280;56279;47.902;12.308;2022-09-09T07:38:29;95222.03;;;16.93;83.72
69171;BME280;56279;47.902;12.308;2022-09-09T07:40:54;95224.38;;;17.03;83.24
69171;BME280;56279;47.902;12.308;2022-09-09T07:43:48;95224.44;;;17.15;83.06
69171;BME280;56279;47.902;12.308;2022-09-09T07:45:57;95241.22;;;17.24;83.28
69171;BME280;56279;47.902;12.308;2022-09-09T07:47:59;95241.50;;;17.32;83.66
69171;BME280;56279;47.902;12.308;2022-09-09T07:50:00;95242.56;;;17.39;83.78
69171;BME280;56279;47.902;12.308;2022-09-09T07:52:08;95245.06;;;17.44;83.42
69171;BME280;56279;47.902;12.308;2022-09-09T07:54:14;95251.97;;;17.45;83.33
69171;BME280;56279;47.902;12.308;2022-09-09T07:56:26;95246.94;;;17.44;83.22
69171;BME280;56279;47.902;12.308;2022-09-09T07:58:28;95252.13;;;17.40;83.09
69171;BME280;56279;47.902;12.308;2022-09-09T08:00:29;95255.09;;;17.39;83.12
69171;BME280;56279;47.902;12.308;2022-09-09T08:02:32;95258.09;;;17.37;83.32
69171;BME280;56279;47.902;12.308;2022-09-09T08:04:33;95254.66;;;17.37;83.16
69171;BME280;56279;47.902;12.308;2022-09-09T08:06:40;95257.31;;;17.37;83.26
69171;BME280;56279;47.902;12.308;2022-09-09T08:08:44;95257.31;;;17.37;83.22
69171;BME280;56279;47.902;12.308;2022-09-09T08:10:48;95250.75;;;17.34;83.19
69171;BME280;56279;47.902;12.308;2022-09-09T08:12:49;95258.59;;;17.31;83.10
69171;BME280;56279;47.902;12.308;2022-09-09T08:15:09;95261.13;;;17.27;83.50
69171;BME280;56279;47.902;12.308;2022-09-09T08:17:10;95260.19;;;17.23;83.63
69171;BME280;56279;47.902;12.308;2022-09-09T08:19:21;95259.28;;;17.19;83.37
69171;BME280;56279;47.902;12.308;2022-09-09T08:21:52;95259.91;;;17.16;83.10
69171;BME280;56279;47.902;12.308;2022-09-09T08:23:59;95258.03;;;17.16;83.10
69171;BME280;56279;47.902;12.308;2022-09-09T08:26:10;95263.22;;;17.13;83.04
69171;BME280;56279;47.902;12.308;2022-09-09T08:28:12;95262.94;;;17.06;82.50
69171;BME280;56279;47.902;12.308;2022-09-09T08:30:14;95268.91;;;17.03;82.61
69171;BME280;56279;47.902;12.308;2022-09-09T08:32:24;95270.66;;;16.99;83.37
69171;BME280;56279;47.902;12.308;2022-09-09T08:34:54;95270.81;;;16.94;83.75
69171;BME280;56279;47.902;12.308;2022-09-09T08:36:57;95274.91;;;16.91;83.67
69171;BME280;56279;47.902;12.308;2022-09-09T08:39:12;95278.19;;;16.88;83.77
69171;BME280;56279;47.902;12.308;2022-09-09T08:50:39;95298.25;;;16.94;83.20
69171;BME280;56279;47.902;12.308;2022-09-09T08:55:52;95306.25;;;17.03;83.30
69171;BME280;56279;47.902;12.308;2022-09-09T08:58:16;95308.09;;;17.11;83.20
69171;BME280;56279;47.902;12.308;2022-09-09T09:00:34;95309.97;;;17.19;83.35
69171;BME280;56279;47.902;12.308;2022-09-09T09:05:48;95343.53;;;17.20;83.43
69171;BME280;56279;47.902;12.308;2022-09-09T09:10:54;95341.03;;;17.06;83.88
69171;BME280;56279;47.902;12.308;2022-09-09T09:13:08;95337.13;;;17.04;84.53
69171;BME280;56279;47.902;12.308;2022-09-09T09:15:23;95345.13;;;17.04;84.50
69171;BME280;56279;47.902;12.308;2022-09-09T09:17:28;95341.06;;;16.98;84.78
69171;BME280;56279;47.902;12.308;2022-09-09T09:19:35;95345.00;;;16.92;85.23
69171;BME280;56279;47.902;12.308;2022-09-09T09:21:45;95342.63;;;16.90;85.33
69171;BME280;56279;47.902;12.308;2022-09-09T09:23:57;95345.94;;;16.96;85.22
69171;BME280;56279;47.902;12.308;2022-09-09T09:26:01;95344.34;;;17.03;85.24
69171;BME280;56279;47.902;12.308;2022-09-09T09:28:12;95346.22;;;17.11;84.84
69171;BME280;56279;47.902;12.308;2022-09-09T09:30:22;95335.50;;;17.20;83.86
69171;BME280;56279;47.902;12.308;2022-09-09T09:32:27;95341.63;;;17.20;83.15
69171;BME280;56279;47.902;12.308;2022-09-09T09:34:29;95335.22;;;17.21;83.44
69171;BME280;56279;47.902;12.308;2022-09-09T09:36:57;95335.34;;;17.25;82.76
69171;BME280;56279;47.902;12.308;2022-09-09T09:39:03;95337.38;;;17.28;83.07
69171;BME280;56279;47.902;12.308;2022-09-09T09:41:07;95330.31;;;17.32;82.91
69171;BME280;56279;47.902;12.308;2022-09-09T09:43:19;95332.97;;;17.41;83.19
69171;BME280;56279;47.902;12.308;2022-09-09T09:45:34;95345.81;;;17.47;82.78
69171;BME280;56279;47.902;12.308;2022-09-09T09:47:44;95342.34;;;17.55;83.05
69171;BME280;56279;47.902;12.308;2022-09-09T09:49:56;95342.84;;;17.57;82.71
69171;BME280;56279;47.902;12.308;2022-09-09T09:52:02;95344.84;;;17.60;82.88
69171;BME280;56279;47.902;12.308;2022-09-09T09:54:15;95338.09;;;17.63;82.96
69171;BME280;56279;47.902;12.308;2022-09-09T09:56:28;95343.44;;;17.63;82.34
69171;BME280;56279;47.902;12.308;2022-09-09T09:58:32;95346.25;;;17.58;81.75
69171;BME280;56279;47.902;12.308;2022-09-09T10:00:47;95352.25;;;17.55;82.21
69171;BME280;56279;47.902;12.308;2022-09-09T10:02:51;95348.94;;;17.49;81.78
69171;BME280;56279;47.902;12.308;2022-09-09T10:07:22;95353.19;;;17.42;82.42
69171;BME280;56279;47.902;12.308;2022-09-09T10:09:30;95348.81;;;17.37;82.27
69171;BME280;56279;47.902;12.308;2022-09-09T10:11:46;95347.44;;;17.31;81.91
69171;BME280;56279;47.902;12.308;2022-09-09T10:16:29;95348.53;;;17.30;82.71
69171;BME280;56279;47.902;12.308;2022-09-09T10:18:59;95352.78;;;17.31;82.34
69171;BME280;56279;47.902;12.308;2022-09-09T10:21:29;95354.03;;;17.34;82.00
69171;BME280;56279;47.902;12.308;2022-09-09T10:33:17;95333.03;;;17.15;82.76
69171;BME280;56279;47.902;12.308;2022-09-09T10:35:33;95334.63;;;17.07;83.21
69171;BME280;56279;47.902;12.308;2022-09-09T10:37:54;95334.16;;;17.05;82.77
69171;BME280;56279;47.902;12.308;2022-09-09T10:42:32;95344.34;;;17.12;82.50
69171;BME280;56279;47.902;12.308;2022-09-09T10:51:56;95375.22;;;17.13;83.06
69171;BME280;56279;47.902;12.308;2022-09-09T10:54:14;95373.69;;;17.03;82.89
69171;BME280;56279;47.902;12.308;2022-09-09T10:56:21;95372.75;;;16.91;83.35
69171;BME280;56279;47.902;12.308;2022-09-09T10:58:35;95371.97;;;16.82;83.50
69171;BME280;56279;47.902;12.308;2022-09-09T11:00:49;95372.44;;;16.75;83.51
69171;BME280;56279;47.902;12.308;2022-09-09T11:02:59;95369.78;;;16.75;83.75
69171;BME280;56279;47.902;12.308;2022-09-09T11:07:12;95357.53;;;16.74;83.76
69171;BME280;56279;47.902;12.308;2022-09-09T11:09:18;95363.81;;;16.78;83.45
69171;BME280;56279;47.902;12.308;2022-09-09T11:11:22;95358.78;;;16.85;83.16
69171;BME280;56279;47.902;12.308;2022-09-09T11:13:48;95355.81;;;16.95;82.94
69171;BME280;56279;47.902;12.308;2022-09-09T11:16:00;95351.41;;;17.08;83.24
69171;BME280;56279;47.902;12.308;2022-09-09T11:18:06;95353.09;;;17.21;82.59
69171;BME280;56279;47.902;12.308;2022-09-09T11:20:13;95351.34;;;17.34;82.12
69171;BME280;56279;47.902;12.308;2022-09-09T11:22:42;95348.63;;;17.51;81.70
69171;BME280;56279;47.902;12.308;2022-09-09T11:24:51;95354.09;;;17.63;80.72
69171;BME280;56279;47.902;12.308;2022-09-09T11:38:26;95351.31;;;17.59;80.68
69171;BME280;56279;47.902;12.308;2022-09-09T11:40:30;95354.78;;;17.51;81.24
69171;BME280;56279;47.902;12.308;2022-09-09T11:42:32;95352.09;;;17.43;81.43
69171;BME280;56279;47.902;12.308;2022-09-09T11:44:34;95353.06;;;17.38;81.69
69171;BME280;56279;47.902;12.308;2022-09-09T11:46:38;95353.69;;;17.35;82.28
69171;BME280;56279;47.902;12.308;2022-09-09T11:48:41;95352.59;;;17.36;82.37
69171;BME280;56279;47.902;12.308;2022-09-09T11:50:57;95357.28;;;17.39;82.31
69171;BME280;56279;47.902;12.308;2022-09-09T11:53:18;95359.31;;;17.42;82.79
69171;BME280;56279;47.902;12.308;2022-09-09T11:55:27;95350.38;;;17.47;83.00
69171;BME280;56279;47.902;12.308;2022-09-09T11:57:32;95348.47;;;17.47;83.31
69171;BME280;56279;47.902;12.308;2022-09-09T11:59:35;95349.28;;;17.48;82.99
69171;BME280;56279;47.902;12.308;2022-09-09T12:01:44;95343.47;;;17.54;83.00
69171;BME280;56279;47.902;12.308;2022-09-09T12:03:48;95338.88;;;17.63;82.70
69171;BME280;56279;47.902;12.308;2022-09-09T12:05:51;95346.06;;;17.71;82.08
69171;BME280;56279;47.902;12.308;2022-09-09T12:07:58;95346.03;;;17.80;81.81
69171;BME280;56279;47.902;12.308;2022-09-09T12:12:30;95347.38;;;17.94;81.87
69171;BME280;56279;47.902;12.308;2022-09-09T12:17:23;95350.91;;;18.07;80.96
69171;BME280;56279;47.902;12.308;2022-09-09T12:19:25;95350.91;;;18.07;81.77
69171;BME280;56279;47.902;12.308;2022-09-09T12:23:52;95350.63;;;18.00;82.08
69171;BME280;56279;47.902;12.308;2022-09-09T12:33:23;95351.53;;;17.75;83.11
69171;BME280;56279;47.902;12.308;2022-09-09T12:35:28;95347.50;;;17.69;83.60
69171;BME280;56279;47.902;12.308;2022-09-09T12:37:38;95346.25;;;17.66;83.81
69171;BME280;56279;47.902;12.308;2022-09-09T12:39:47;95346.44;;;17.61;84.16
69171;BME280;56279;47.902;12.308;2022-09-09T12:41:52;95347.50;;;17.60;84.38
69171;BME280;56279;47.902;12.308;2022-09-09T12:44:05;95347.22;;;17.62;84.55
69171;BME280;56279;47.902;12.308;2022-09-09T12:46:09;95339.34;;;17.65;84.66
69171;BME280;56279;47.902;12.308;2022-09-09T12:48:18;95347.16;;;17.70;84.16
69171;BME280;56279;47.902;12.308;2022-09-09T12:52:32;95346.22;;;17.75;84.13